Time;durP1;ratioP1;P1;durP2;ratioP2;P2;SDS_P1;SDS_P2;PMS_P1;PMS_P2;Temp;Humidity;BMP_temperature;BMP_pressure;BME280_temperature;BME280_humidity;BME280_pressure;Samples;Min_cycle;Max_cycle;Signal;HPM_P1;HPM_P2
2023/07/20 00:00:21;;;;;;;3.53;2.40;;;;;;;;;;5120495;28;20312;-61
2023/07/20 00:02:52;;;;;;;2.60;2.40;;;;;;;;;;5120488;28;20533;-63
2023/07/20 00:05:21;;;;;;;3.85;2.30;;;;;;;;;;5120086;28;20210;-61
2023/07/20 00:07:51;;;;;;;2.83;2.47;;;;;;;;;;5119570;28;20258;-61
2023/07/20 00:10:19;;;;;;;6.43;2.70;;;;;;;;;;5120120;28;20203;-61
2023/07/20 00:12:47;;;;;;;2.88;2.63;;;;;;;;;;5119789;28;20303;-61
2023/07/20 00:15:15;;;;;;;2.60;2.40;;;;;;;;;;5120014;28;20271;-61
2023/07/20 00:17:44;;;;;;;3.63;2.53;;;;;;;;;;5119988;28;20647;-61
2023/07/20 00:20:12;;;;;;;2.75;2.55;;;;;;;;;;5119796;28;20238;-61
2023/07/20 00:22:41;;;;;;;2.83;2.50;;;;;;;;;;5120188;28;20243;-61
2023/07/20 00:25:11;;;;;;;2.60;2.22;;;;;;;;;;5119710;28;20211;-61
2023/07/20 00:27:38;;;;;;;2.45;2.17;;;;;;;;;;5119607;28;20223;-61
2023/07/20 00:30:07;;;;;;;2.42;2.22;;;;;;;;;;5119708;28;20211;-62
2023/07/20 00:32:34;;;;;;;3.60;2.50;;;;;;;;;;5119653;28;20239;-62
2023/07/20 00:35:02;;;;;;;5.40;2.25;;;;;;;;;;5119381;28;20245;-61
2023/07/20 00:37:30;;;;;;;4.20;2.70;;;;;;;;;;5119484;28;20199;-62
2023/07/20 00:39:59;;;;;;;3.35;2.65;;;;;;;;;;5119665;28;20242;-61
2023/07/20 00:42:26;;;;;;;2.58;2.33;;;;;;;;;;5119692;28;20533;-61
2023/07/20 00:44:54;;;;;;;2.67;2.47;;;;;;;;;;5119632;28;20207;-61
2023/07/20 00:47:22;;;;;;;3.22;2.13;;;;;;;;;;5118934;28;20214;-61
2023/07/20 00:49:49;;;;;;;3.45;2.30;;;;;;;;;;5119286;28;20277;-62
2023/07/20 00:52:17;;;;;;;6.10;2.38;;;;;;;;;;5119563;28;20458;-61
2023/07/20 00:54:45;;;;;;;3.13;2.17;;;;;;;;;;5119495;28;20203;-62
2023/07/20 00:57:16;;;;;;;2.75;2.40;;;;;;;;;;5119461;28;20214;-62
2023/07/20 00:59:43;;;;;;;2.80;2.45;;;;;;;;;;5119080;28;20487;-61
2023/07/20 01:02:11;;;;;;;2.60;2.40;;;;;;;;;;5118763;28;20203;-62
2023/07/20 01:04:38;;;;;;;3.85;2.38;;;;;;;;;;5118882;28;20256;-62
2023/07/20 01:07:13;;;;;;;3.05;2.33;;;;;;;;;;5118692;28;20622;-62
2023/07/20 01:09:44;;;;;;;2.55;2.20;;;;;;;;;;5119030;28;20211;-61
2023/07/20 01:12:14;;;;;;;2.72;2.28;;;;;;;;;;5118613;28;20202;-62
2023/07/20 01:14:43;;;;;;;3.05;2.10;;;;;;;;;;5118666;28;20235;-62
2023/07/20 01:17:12;;;;;;;2.97;2.42;;;;;;;;;;5118752;28;20195;-61
2023/07/20 01:19:39;;;;;;;2.40;2.20;;;;;;;;;;5118516;28;20663;-61
2023/07/20 01:22:11;;;;;;;3.58;2.30;;;;;;;;;;5118674;28;20271;-61
2023/07/20 01:24:53;;;;;;;3.10;2.50;;;;;;;;;;5118508;28;20233;-62
2023/07/20 01:27:45;;;;;;;2.60;2.40;;;;;;;;;;5118828;28;20222;-62
2023/07/20 01:30:27;;;;;;;2.65;2.13;;;;;;;;;;5096922;28;20289;-62
2023/07/20 01:32:57;;;;;;;3.97;2.22;;;;;;;;;;5118373;28;20203;-63
2023/07/20 01:35:25;;;;;;;2.80;2.10;;;;;;;;;;5118924;28;20486;-61
2023/07/20 01:37:53;;;;;;;3.25;2.40;;;;;;;;;;5118887;28;20199;-61
2023/07/20 01:40:21;;;;;;;2.47;2.28;;;;;;;;;;5118286;28;20253;-62
2023/07/20 01:42:49;;;;;;;3.20;2.17;;;;;;;;;;5117846;28;20214;-62
2023/07/20 01:45:16;;;;;;;2.55;2.35;;;;;;;;;;5118754;28;20207;-62
2023/07/20 01:47:44;;;;;;;3.50;2.38;;;;;;;;;;5118569;28;20222;-61
2023/07/20 01:50:14;;;;;;;2.30;2.10;;;;;;;;;;5118360;28;20267;-62
2023/07/20 01:52:41;;;;;;;4.90;2.10;;;;;;;;;;5117807;28;20202;-62
2023/07/20 01:55:10;;;;;;;2.95;2.25;;;;;;;;;;5118497;28;20214;-62
2023/07/20 01:57:37;;;;;;;2.22;1.95;;;;;;;;;;5118526;28;20206;-63
2023/07/20 02:00:06;;;;;;;2.97;1.90;;;;;;;;;;5109922;28;20205;-62
2023/07/20 02:02:34;;;;;;;2.33;2.13;;;;;;;;;;5117186;28;20488;-62
2023/07/20 02:05:02;;;;;;;2.58;2.28;;;;;;;;;;5118153;28;20230;-62
2023/07/20 02:07:31;;;;;;;2.55;2.10;;;;;;;;;;5116930;28;20299;-62
2023/07/20 02:09:59;;;;;;;2.10;1.92;;;;;;;;;;5117607;28;20210;-62
2023/07/20 02:12:26;;;;;;;2.40;2.20;;;;;;;;;;5117489;28;20199;-62
2023/07/20 02:14:54;;;;;;;2.10;1.90;;;;;;;;;;5118717;28;20211;-67
2023/07/20 02:17:21;;;;;;;2.53;1.98;;;;;;;;;;5117998;28;20203;-62
2023/07/20 02:19:52;;;;;;;2.47;1.90;;;;;;;;;;5117860;28;20211;-62
2023/07/20 02:22:19;;;;;;;1.85;1.70;;;;;;;;;;5117988;28;20323;-62
2023/07/20 02:24:49;;;;;;;2.63;1.95;;;;;;;;;;5117668;28;20203;-62
2023/07/20 02:27:16;;;;;;;2.00;1.80;;;;;;;;;;5117686;28;20234;-62
2023/07/20 02:29:44;;;;;;;2.65;1.80;;;;;;;;;;5118563;28;20203;-62
2023/07/20 02:32:12;;;;;;;2.28;1.90;;;;;;;;;;5117844;28;20513;-62
2023/07/20 02:34:39;;;;;;;2.95;1.98;;;;;;;;;;5117902;28;20522;-62
2023/07/20 02:37:07;;;;;;;2.17;1.67;;;;;;;;;;5117771;28;20206;-62
2023/07/20 02:39:35;;;;;;;1.83;1.67;;;;;;;;;;5117780;28;20203;-62
2023/07/20 02:42:04;;;;;;;2.17;1.50;;;;;;;;;;5117836;28;20203;-62
2023/07/20 02:44:31;;;;;;;1.80;1.30;;;;;;;;;;5117676;28;20199;-62
2023/07/20 02:46:59;;;;;;;2.08;1.27;;;;;;;;;;5118182;28;20264;-62
2023/07/20 02:49:27;;;;;;;1.60;1.50;;;;;;;;;;5118062;28;20246;-62
2023/07/20 02:51:54;;;;;;;2.72;1.40;;;;;;;;;;5118090;28;20202;-62
2023/07/20 02:54:22;;;;;;;2.47;1.50;;;;;;;;;;5118733;28;20252;-62
2023/07/20 02:56:50;;;;;;;1.95;1.50;;;;;;;;;;5121156;28;20209;-62
2023/07/20 02:59:19;;;;;;;1.60;1.50;;;;;;;;;;5121573;28;20206;-62
2023/07/20 03:01:47;;;;;;;1.52;1.42;;;;;;;;;;5121439;28;20203;-62
2023/07/20 03:04:16;;;;;;;1.60;1.40;;;;;;;;;;5121354;28;20233;-62
2023/07/20 03:06:43;;;;;;;1.50;1.40;;;;;;;;;;5121294;28;20266;-62
2023/07/20 03:09:11;;;;;;;2.20;1.58;;;;;;;;;;5121304;28;20238;-62
2023/07/20 03:11:39;;;;;;;1.50;1.40;;;;;;;;;;5120911;28;20210;-62
2023/07/20 03:14:06;;;;;;;1.90;1.70;;;;;;;;;;5120957;28;20607;-62
2023/07/20 03:16:35;;;;;;;2.38;1.60;;;;;;;;;;5120855;28;20240;-62
2023/07/20 03:19:04;;;;;;;1.52;1.42;;;;;;;;;;5121170;28;20445;-62
2023/07/20 03:21:32;;;;;;;1.65;1.55;;;;;;;;;;5121086;28;20242;-62
2023/07/20 03:23:59;;;;;;;1.60;1.50;;;;;;;;;;5120844;28;20214;-61
2023/07/20 03:26:27;;;;;;;2.38;1.67;;;;;;;;;;5120719;28;20203;-62
2023/07/20 03:28:55;;;;;;;2.00;1.50;;;;;;;;;;5121068;28;20215;-61
2023/07/20 03:31:23;;;;;;;1.83;1.73;;;;;;;;;;5120496;28;20510;-62
2023/07/20 03:33:52;;;;;;;2.13;1.95;;;;;;;;;;5120489;28;20238;-62
2023/07/20 03:36:19;;;;;;;1.58;1.45;;;;;;;;;;5120666;28;20543;-61
2023/07/20 03:38:47;;;;;;;2.05;1.83;;;;;;;;;;5120347;28;20199;-62
2023/07/20 03:41:16;;;;;;;2.03;1.75;;;;;;;;;;5120757;28;20513;-62
2023/07/20 03:43:43;;;;;;;1.90;1.80;;;;;;;;;;5119952;28;20206;-61
2023/07/20 03:46:11;;;;;;;2.10;2.00;;;;;;;;;;5119316;28;20814;-61
2023/07/20 03:48:38;;;;;;;2.20;1.90;;;;;;;;;;5120119;28;20227;-62
2023/07/20 03:51:08;;;;;;;2.17;1.88;;;;;;;;;;5120102;28;20592;-62
2023/07/20 03:53:35;;;;;;;1.83;1.73;;;;;;;;;;5120013;28;20257;-62
2023/07/20 03:56:03;;;;;;;1.95;1.80;;;;;;;;;;5119635;28;20215;-62
2023/07/20 03:58:31;;;;;;;3.08;2.08;;;;;;;;;;5120294;28;20203;-62
2023/07/20 04:00:59;;;;;;;2.30;1.75;;;;;;;;;;5120187;28;20203;-62
2023/07/20 04:03:27;;;;;;;3.30;2.05;;;;;;;;;;5120199;28;20203;-62
2023/07/20 04:05:55;;;;;;;3.97;2.20;;;;;;;;;;5119591;28;20207;-62
2023/07/20 04:08:25;;;;;;;3.60;2.20;;;;;;;;;;5120179;28;20245;-62
2023/07/20 04:10:52;;;;;;;3.08;2.08;;;;;;;;;;5119673;28;20257;-62
2023/07/20 04:13:19;;;;;;;2.78;1.92;;;;;;;;;;5120166;28;20490;-62
2023/07/20 04:15:47;;;;;;;2.13;1.95;;;;;;;;;;5119811;28;20202;-62
2023/07/20 04:18:14;;;;;;;2.05;1.85;;;;;;;;;;5119750;28;20201;-62
2023/07/20 04:20:42;;;;;;;2.05;1.88;;;;;;;;;;5119305;28;20659;-62
2023/07/20 04:23:10;;;;;;;2.80;2.00;;;;;;;;;;5119694;28;20203;-62
2023/07/20 04:25:40;;;;;;;3.33;2.22;;;;;;;;;;5119523;28;20794;-62
2023/07/20 04:28:11;;;;;;;4.35;2.25;;;;;;;;;;5118890;28;20817;-62
2023/07/20 04:30:39;;;;;;;2.70;2.30;;;;;;;;;;5119125;28;20289;-62
2023/07/20 04:33:06;;;;;;;2.45;2.10;;;;;;;;;;5118894;28;20203;-62
2023/07/20 04:35:47;;;;;;;2.33;2.13;;;;;;;;;;5118916;28;20242;-62
2023/07/20 04:38:15;;;;;;;2.03;1.88;;;;;;;;;;5118750;28;20198;-61
2023/07/20 04:40:44;;;;;;;2.33;2.08;;;;;;;;;;5118680;28;20199;-61
2023/07/20 04:43:11;;;;;;;2.65;2.15;;;;;;;;;;5118830;28;20264;-61
2023/07/20 04:45:39;;;;;;;2.38;1.80;;;;;;;;;;5118419;28;20202;-62
2023/07/20 04:48:09;;;;;;;2.17;1.98;;;;;;;;;;5118466;28;20234;-62
2023/07/20 04:50:36;;;;;;;2.03;1.90;;;;;;;;;;5118411;28;20199;-62
2023/07/20 04:53:03;;;;;;;3.13;2.30;;;;;;;;;;5119239;28;20206;-62
2023/07/20 04:55:32;;;;;;;4.35;2.25;;;;;;;;;;5118407;28;20290;-62
2023/07/20 04:58:01;;;;;;;2.90;2.13;;;;;;;;;;5118761;28;20205;-61
2023/07/20 05:00:28;;;;;;;2.20;2.00;;;;;;;;;;5118011;28;20575;-62
2023/07/20 05:02:56;;;;;;;2.13;1.92;;;;;;;;;;5117793;28;20715;-62
2023/07/20 05:05:23;;;;;;;2.35;2.17;;;;;;;;;;5117835;28;20601;-62
2023/07/20 05:07:51;;;;;;;3.22;2.50;;;;;;;;;;5118350;28;20195;-62
2023/07/20 05:10:19;;;;;;;2.70;2.45;;;;;;;;;;5118216;28;20211;-62
2023/07/20 05:12:46;;;;;;;2.38;2.05;;;;;;;;;;5117883;28;20282;-62
2023/07/20 05:15:15;;;;;;;2.45;2.25;;;;;;;;;;5117467;28;20217;-62
2023/07/20 05:17:42;;;;;;;2.50;2.30;;;;;;;;;;5116870;28;20209;-62
2023/07/20 05:20:12;;;;;;;3.50;2.13;;;;;;;;;;5117658;28;20210;-62
2023/07/20 05:22:40;;;;;;;2.15;2.05;;;;;;;;;;5117852;28;20203;-62
2023/07/20 05:25:09;;;;;;;3.15;2.10;;;;;;;;;;5117778;28;20203;-62
2023/07/20 05:27:38;;;;;;;2.30;2.08;;;;;;;;;;5117737;28;20203;-62
2023/07/20 05:30:07;;;;;;;5.30;2.20;;;;;;;;;;5117207;28;20229;-62
2023/07/20 05:32:35;;;;;;;3.10;2.10;;;;;;;;;;5117676;28;20203;-62
2023/07/20 05:35:03;;;;;;;2.45;2.25;;;;;;;;;;5117347;28;20234;-62
2023/07/20 05:37:32;;;;;;;2.97;2.10;;;;;;;;;;5117463;28;20298;-62
2023/07/20 05:39:59;;;;;;;2.72;2.40;;;;;;;;;;5117439;28;20286;-62
2023/07/20 05:42:26;;;;;;;3.67;2.35;;;;;;;;;;5117056;28;20209;-61
2023/07/20 05:44:55;;;;;;;4.85;2.42;;;;;;;;;;5117261;28;20203;-62
2023/07/20 05:47:22;;;;;;;2.72;2.35;;;;;;;;;;5117661;28;20527;-62
2023/07/20 05:49:51;;;;;;;2.60;2.20;;;;;;;;;;5116751;28;20258;-61
2023/07/20 05:52:18;;;;;;;2.58;2.10;;;;;;;;;;5117317;28;20280;-63
2023/07/20 05:54:46;;;;;;;2.53;1.95;;;;;;;;;;5117120;28;20195;-62
2023/07/20 05:57:13;;;;;;;4.13;2.42;;;;;;;;;;5116182;28;20684;-62
2023/07/20 05:59:43;;;;;;;2.65;2.45;;;;;;;;;;5116786;28;20281;-61
2023/07/20 06:02:11;;;;;;;5.72;2.70;;;;;;;;;;5117479;28;20203;-61
2023/07/20 06:04:39;;;;;;;3.33;2.60;;;;;;;;;;5116432;28;20317;-62
2023/07/20 06:07:08;;;;;;;3.15;2.50;;;;;;;;;;5116232;28;20217;-62
2023/07/20 06:09:36;;;;;;;3.30;2.75;;;;;;;;;;5116244;28;20227;-62
2023/07/20 06:12:03;;;;;;;3.20;2.67;;;;;;;;;;5116802;28;20202;-62
2023/07/20 06:14:31;;;;;;;3.88;2.58;;;;;;;;;;5116050;28;20590;-62
2023/07/20 06:16:59;;;;;;;3.83;2.90;;;;;;;;;;5116706;28;20203;-62
2023/07/20 06:19:26;;;;;;;4.78;3.08;;;;;;;;;;5116217;28;20285;-62
2023/07/20 06:21:53;;;;;;;3.45;2.90;;;;;;;;;;5116566;28;20203;-62
2023/07/20 06:24:22;;;;;;;3.55;3.00;;;;;;;;;;5116873;28;20209;-63
2023/07/20 06:26:49;;;;;;;3.05;2.75;;;;;;;;;;5116769;28;20298;-63
2023/07/20 06:29:17;;;;;;;4.25;2.80;;;;;;;;;;5119341;28;20222;-63
2023/07/20 06:31:44;;;;;;;3.42;2.75;;;;;;;;;;5120384;28;20202;-63
2023/07/20 06:34:12;;;;;;;3.70;3.00;;;;;;;;;;5120576;28;20314;-63
2023/07/20 06:36:39;;;;;;;3.88;3.28;;;;;;;;;;5120891;28;20572;-64
2023/07/20 06:39:07;;;;;;;3.20;2.83;;;;;;;;;;5120408;28;20281;-62
2023/07/20 06:41:36;;;;;;;3.00;2.67;;;;;;;;;;5119986;28;20260;-62
2023/07/20 06:44:04;;;;;;;3.30;2.72;;;;;;;;;;5120427;28;20203;-62
2023/07/20 06:46:32;;;;;;;3.67;3.35;;;;;;;;;;5119938;28;20214;-62
2023/07/20 06:48:59;;;;;;;5.85;3.58;;;;;;;;;;5120145;28;20618;-62
2023/07/20 06:51:27;;;;;;;3.88;3.25;;;;;;;;;;5120295;28;20656;-62
2023/07/20 06:53:54;;;;;;;4.30;3.20;;;;;;;;;;5119872;28;20199;-62
2023/07/20 06:56:22;;;;;;;3.92;3.33;;;;;;;;;;5119343;28;20209;-62
2023/07/20 06:58:50;;;;;;;3.42;3.03;;;;;;;;;;5120235;28;20199;-62
2023/07/20 07:01:18;;;;;;;5.10;3.63;;;;;;;;;;5119704;28;20203;-62
2023/07/20 07:03:46;;;;;;;3.83;3.40;;;;;;;;;;5118966;28;20221;-62
2023/07/20 07:06:13;;;;;;;3.80;3.50;;;;;;;;;;5118734;28;20600;-62
2023/07/20 07:08:41;;;;;;;3.60;3.15;;;;;;;;;;5120163;28;20199;-62
2023/07/20 07:11:09;;;;;;;2.97;2.78;;;;;;;;;;5119159;28;20230;-62
2023/07/20 07:13:36;;;;;;;3.53;3.10;;;;;;;;;;5119217;28;20234;-62
2023/07/20 07:16:05;;;;;;;2.75;2.50;;;;;;;;;;5119421;28;20259;-62
2023/07/20 07:18:33;;;;;;;2.75;2.55;;;;;;;;;;5119457;28;20281;-62
2023/07/20 07:21:00;;;;;;;3.03;2.78;;;;;;;;;;5119481;28;20301;-62
2023/07/20 07:23:28;;;;;;;2.83;2.47;;;;;;;;;;5119493;28;20207;-62
2023/07/20 07:25:56;;;;;;;2.97;2.78;;;;;;;;;;5119597;28;20267;-62
2023/07/20 07:28:23;;;;;;;3.65;3.08;;;;;;;;;;5118604;28;20210;-62
2023/07/20 07:30:50;;;;;;;3.08;2.85;;;;;;;;;;5119179;28;20230;-62
2023/07/20 07:33:19;;;;;;;3.75;2.90;;;;;;;;;;5119023;28;20202;-62
2023/07/20 07:35:47;;;;;;;4.03;3.63;;;;;;;;;;5118794;28;20195;-62
2023/07/20 07:38:14;;;;;;;3.72;3.42;;;;;;;;;;5119143;28;20428;-62
2023/07/20 07:40:41;;;;;;;4.28;3.53;;;;;;;;;;5117846;28;20814;-62
2023/07/20 07:43:10;;;;;;;3.40;3.10;;;;;;;;;;5118706;28;20214;-62
2023/07/20 07:45:37;;;;;;;3.08;2.80;;;;;;;;;;5119446;28;20543;-62
2023/07/20 07:48:05;;;;;;;3.92;3.58;;;;;;;;;;5118867;28;20207;-62
2023/07/20 07:50:34;;;;;;;3.35;3.05;;;;;;;;;;5118793;28;20223;-62
2023/07/20 07:53:02;;;;;;;3.15;2.90;;;;;;;;;;5117781;28;20231;-62
2023/07/20 07:55:30;;;;;;;3.10;2.90;;;;;;;;;;5118633;28;20211;-62
2023/07/20 07:57:57;;;;;;;3.30;3.00;;;;;;;;;;5118302;28;20526;-62
2023/07/20 08:00:25;;;;;;;3.10;2.90;;;;;;;;;;5118026;28;20528;-62
2023/07/20 08:02:52;;;;;;;2.90;2.70;;;;;;;;;;5117104;28;20202;-62
2023/07/20 08:05:20;;;;;;;4.30;2.60;;;;;;;;;;5118310;28;20480;-62
2023/07/20 08:07:49;;;;;;;3.20;2.90;;;;;;;;;;5118224;28;20293;-62
2023/07/20 08:10:16;;;;;;;3.15;2.90;;;;;;;;;;5118395;28;20368;-62
2023/07/20 08:12:44;;;;;;;2.70;2.50;;;;;;;;;;5117601;28;20225;-62
2023/07/20 08:15:14;;;;;;;2.85;2.53;;;;;;;;;;5117708;28;20648;-62
2023/07/20 08:17:41;;;;;;;3.10;2.80;;;;;;;;;;5118329;28;20210;-62
2023/07/20 08:20:11;;;;;;;2.78;2.58;;;;;;;;;;5118141;28;20191;-62
2023/07/20 08:22:39;;;;;;;3.28;2.97;;;;;;;;;;5118568;28;20552;-62
2023/07/20 08:25:08;;;;;;;2.95;2.75;;;;;;;;;;5118483;28;20199;-62
2023/07/20 08:27:36;;;;;;;2.83;2.63;;;;;;;;;;5117750;28;20241;-62
2023/07/20 08:30:04;;;;;;;2.78;2.58;;;;;;;;;;5117329;28;20229;-62
2023/07/20 08:32:31;;;;;;;3.15;2.65;;;;;;;;;;5117849;28;20210;-62
2023/07/20 08:34:59;;;;;;;2.83;2.55;;;;;;;;;;5116675;28;20230;-62
2023/07/20 08:37:26;;;;;;;2.78;2.58;;;;;;;;;;5116648;28;20306;-62
2023/07/20 08:39:54;;;;;;;3.17;2.88;;;;;;;;;;5115790;28;20500;-62
2023/07/20 08:42:24;;;;;;;3.55;3.05;;;;;;;;;;5117087;28;20203;-62
2023/07/20 08:44:54;;;;;;;3.40;3.10;;;;;;;;;;5116602;28;20207;-62
2023/07/20 08:47:22;;;;;;;3.20;2.90;;;;;;;;;;5116333;28;20732;-62
2023/07/20 08:49:50;;;;;;;3.05;2.75;;;;;;;;;;5117404;28;20254;-62
2023/07/20 08:52:17;;;;;;;3.38;3.08;;;;;;;;;;5116502;28;20502;-61
2023/07/20 08:54:45;;;;;;;3.00;2.80;;;;;;;;;;5116546;28;20199;-62
2023/07/20 08:57:15;;;;;;;2.97;2.78;;;;;;;;;;5116551;28;20635;-62
2023/07/20 08:59:45;;;;;;;2.88;2.60;;;;;;;;;;5116879;28;20206;-62
2023/07/20 09:02:16;;;;;;;2.83;2.63;;;;;;;;;;5116589;28;20233;-62
2023/07/20 09:04:44;;;;;;;2.60;2.42;;;;;;;;;;5116466;28;20283;-62
2023/07/20 09:07:11;;;;;;;3.17;2.88;;;;;;;;;;5116928;28;20242;-62
2023/07/20 09:09:42;;;;;;;2.97;2.78;;;;;;;;;;5116743;28;20223;-62
2023/07/20 09:12:14;;;;;;;3.88;2.63;;;;;;;;;;5116109;28;20199;-62
2023/07/20 09:14:44;;;;;;;3.85;3.00;;;;;;;;;;5116447;28;20203;-62
2023/07/20 09:17:16;;;;;;;3.10;2.80;;;;;;;;;;5115436;28;20214;-62
2023/07/20 09:19:48;;;;;;;2.95;2.75;;;;;;;;;;5116626;28;20199;-61
2023/07/20 09:22:17;;;;;;;2.85;2.65;;;;;;;;;;5116500;28;20704;-62
2023/07/20 09:24:45;;;;;;;2.90;2.70;;;;;;;;;;5116222;28;20203;-62
2023/07/20 09:27:12;;;;;;;3.50;3.00;;;;;;;;;;5115426;28;20195;-62
2023/07/20 09:29:49;;;;;;;2.80;2.60;;;;;;;;;;5116096;28;20708;-62
2023/07/20 09:32:20;;;;;;;3.22;2.92;;;;;;;;;;5115625;28;20590;-62
2023/07/20 09:34:48;;;;;;;3.25;2.85;;;;;;;;;;5115384;28;20238;-62
2023/07/20 09:37:15;;;;;;;2.97;2.67;;;;;;;;;;5115563;28;20820;-61
2023/07/20 09:39:46;;;;;;;4.13;3.00;;;;;;;;;;5116523;28;20298;-61
2023/07/20 09:42:13;;;;;;;2.97;2.67;;;;;;;;;;5115210;28;20290;-61
2023/07/20 09:44:41;;;;;;;3.20;2.90;;;;;;;;;;5115065;28;20282;-61
2023/07/20 09:47:09;;;;;;;2.83;2.63;;;;;;;;;;5116193;28;20210;-62
2023/07/20 09:49:42;;;;;;;2.65;2.45;;;;;;;;;;5115316;28;20230;-62
2023/07/20 09:52:10;;;;;;;2.75;2.60;;;;;;;;;;5115617;28;20213;-62
2023/07/20 09:54:39;;;;;;;2.70;2.50;;;;;;;;;;5116265;28;20301;-62
2023/07/20 09:57:09;;;;;;;3.22;2.53;;;;;;;;;;5115089;28;20207;-62
2023/07/20 09:59:36;;;;;;;2.60;2.40;;;;;;;;;;5115979;28;20194;-61
2023/07/20 10:02:06;;;;;;;3.20;2.10;;;;;;;;;;5115018;28;20266;-62
2023/07/20 10:04:36;;;;;;;2.63;2.10;;;;;;;;;;5118951;28;20740;-62
2023/07/20 10:07:07;;;;;;;2.30;2.10;;;;;;;;;;5120108;28;20293;-62
2023/07/20 10:09:36;;;;;;;3.03;2.20;;;;;;;;;;5119558;28;20699;-62
2023/07/20 10:12:03;;;;;;;3.17;2.25;;;;;;;;;;5119569;28;20301;-61
2023/07/20 10:14:33;;;;;;;2.25;2.15;;;;;;;;;;5119617;28;20201;-61
2023/07/20 10:17:02;;;;;;;3.65;2.42;;;;;;;;;;5119578;28;20598;-61
2023/07/20 10:19:34;;;;;;;2.58;2.38;;;;;;;;;;5119395;28;20203;-61
2023/07/20 10:22:05;;;;;;;2.60;2.40;;;;;;;;;;5119662;28;20213;-61
2023/07/20 10:24:34;;;;;;;2.53;2.33;;;;;;;;;;5118846;28;20201;-61
2023/07/20 10:27:02;;;;;;;2.65;2.33;;;;;;;;;;5119735;28;20298;-62
2023/07/20 10:29:30;;;;;;;2.58;2.38;;;;;;;;;;5119379;28;20238;-62
2023/07/20 10:31:58;;;;;;;2.78;2.40;;;;;;;;;;5118992;28;20408;-62
2023/07/20 10:34:26;;;;;;;2.60;2.40;;;;;;;;;;5118895;28;20237;-61
2023/07/20 10:36:54;;;;;;;4.07;2.30;;;;;;;;;;5119765;28;20214;-61
2023/07/20 10:39:27;;;;;;;2.60;2.40;;;;;;;;;;5120025;28;20195;-62
2023/07/20 10:42:03;;;;;;;2.85;2.65;;;;;;;;;;5118642;28;20217;-62
2023/07/20 10:44:30;;;;;;;2.65;2.45;;;;;;;;;;5118982;28;20263;-61
2023/07/20 10:47:01;;;;;;;3.20;2.72;;;;;;;;;;5119517;28;20301;-62
2023/07/20 10:49:29;;;;;;;2.75;2.55;;;;;;;;;;5119313;28;20351;-62
2023/07/20 10:52:00;;;;;;;2.75;2.42;;;;;;;;;;5119196;28;20492;-62
2023/07/20 10:54:49;;;;;;;2.80;2.47;;;;;;;;;;5119186;28;20203;-61
2023/07/20 10:57:24;;;;;;;4.18;2.30;;;;;;;;;;5118377;28;20339;-61
2023/07/20 10:59:52;;;;;;;2.40;2.20;;;;;;;;;;5118543;28;20234;-62
2023/07/20 11:02:20;;;;;;;2.45;2.00;;;;;;;;;;5118705;28;20249;-62
2023/07/20 11:04:48;;;;;;;2.50;2.08;;;;;;;;;;5118570;28;20203;-62
2023/07/20 11:07:20;;;;;;;2.95;2.03;;;;;;;;;;5118991;28;20456;-62
2023/07/20 11:09:47;;;;;;;2.58;2.00;;;;;;;;;;5118895;28;20203;-62
2023/07/20 11:12:16;;;;;;;2.25;2.05;;;;;;;;;;5118432;28;20202;-62
2023/07/20 11:14:45;;;;;;;2.65;2.22;;;;;;;;;;5118058;28;20196;-62
2023/07/20 11:17:14;;;;;;;2.20;2.00;;;;;;;;;;5119198;28;20257;-62
2023/07/20 11:19:42;;;;;;;2.45;2.20;;;;;;;;;;5118464;28;20203;-62
2023/07/20 11:22:09;;;;;;;2.85;2.08;;;;;;;;;;5118911;28;20201;-62
2023/07/20 11:24:40;;;;;;;2.45;2.03;;;;;;;;;;5118444;28;20298;-62
2023/07/20 11:27:07;;;;;;;2.85;2.20;;;;;;;;;;5117478;28;20207;-62
2023/07/20 11:29:36;;;;;;;3.15;2.00;;;;;;;;;;5118643;28;20337;-62
2023/07/20 11:32:05;;;;;;;2.67;2.20;;;;;;;;;;5118514;28;20321;-62
2023/07/20 11:34:33;;;;;;;2.17;2.00;;;;;;;;;;5117574;28;20626;-62
2023/07/20 11:37:00;;;;;;;2.35;1.80;;;;;;;;;;5117641;28;20268;-62
2023/07/20 11:39:29;;;;;;;2.63;1.98;;;;;;;;;;5118158;28;20203;-62
2023/07/20 11:41:57;;;;;;;2.00;1.80;;;;;;;;;;5118320;28;20199;-62
2023/07/20 11:44:27;;;;;;;2.15;1.98;;;;;;;;;;5117841;28;20597;-62
2023/07/20 11:47:03;;;;;;;2.28;2.08;;;;;;;;;;5118390;28;20211;-62
2023/07/20 11:49:32;;;;;;;2.30;2.10;;;;;;;;;;5116994;28;20230;-62
2023/07/20 11:52:00;;;;;;;1.80;1.70;;;;;;;;;;5117650;28;20226;-62
2023/07/20 11:54:28;;;;;;;1.92;1.70;;;;;;;;;;5117669;28;20302;-62
2023/07/20 11:56:56;;;;;;;1.77;1.67;;;;;;;;;;5117283;28;20306;-62
2023/07/20 11:59:23;;;;;;;1.98;1.70;;;;;;;;;;5117108;28;20772;-62
2023/07/20 12:01:51;;;;;;;2.10;1.90;;;;;;;;;;5117098;28;20554;-62
2023/07/20 12:04:19;;;;;;;2.65;1.83;;;;;;;;;;5117603;28;20310;-62
2023/07/20 12:06:48;;;;;;;2.38;1.80;;;;;;;;;;5118383;28;20214;-62
2023/07/20 12:09:16;;;;;;;2.13;1.70;;;;;;;;;;5117325;28;20203;-62
2023/07/20 12:11:44;;;;;;;1.98;1.88;;;;;;;;;;5116247;28;20222;-62
2023/07/20 12:14:12;;;;;;;1.73;1.63;;;;;;;;;;5117520;28;20203;-62
2023/07/20 12:16:39;;;;;;;2.00;1.80;;;;;;;;;;5118089;28;20199;-62
2023/07/20 12:19:08;;;;;;;1.90;1.80;;;;;;;;;;5117318;28;20590;-62
2023/07/20 12:21:36;;;;;;;2.28;1.90;;;;;;;;;;5117148;28;20234;-62
2023/07/20 12:24:06;;;;;;;2.25;1.90;;;;;;;;;;5116363;28;20268;-62
2023/07/20 12:26:34;;;;;;;2.00;1.90;;;;;;;;;;5115854;28;20610;-63
2023/07/20 12:29:03;;;;;;;1.85;1.75;;;;;;;;;;5115470;28;20194;-62
2023/07/20 12:31:31;;;;;;;1.83;1.73;;;;;;;;;;5116240;28;20231;-62
2023/07/20 12:33:59;;;;;;;2.05;1.70;;;;;;;;;;5116452;28;20239;-62
2023/07/20 12:36:26;;;;;;;1.80;1.70;;;;;;;;;;5116224;28;20207;-62
2023/07/20 12:38:54;;;;;;;2.10;2.00;;;;;;;;;;5116365;28;20306;-62
2023/07/20 12:41:22;;;;;;;2.22;2.05;;;;;;;;;;5116228;28;20248;-62
2023/07/20 12:43:50;;;;;;;1.92;1.83;;;;;;;;;;5116465;28;20213;-62
2023/07/20 12:46:17;;;;;;;2.20;2.00;;;;;;;;;;5116291;28;20209;-62
2023/07/20 12:48:45;;;;;;;2.30;2.20;;;;;;;;;;5117009;28;20262;-62
2023/07/20 12:51:13;;;;;;;2.13;1.95;;;;;;;;;;5117162;28;20256;-62
2023/07/20 12:53:41;;;;;;;2.20;2.00;;;;;;;;;;5115859;28;20227;-62
2023/07/20 12:56:08;;;;;;;2.58;2.38;;;;;;;;;;5116194;28;20210;-62
2023/07/20 12:58:37;;;;;;;2.00;1.90;;;;;;;;;;5115244;28;20209;-62
2023/07/20 13:01:04;;;;;;;2.10;2.00;;;;;;;;;;5115575;28;20207;-62
2023/07/20 13:03:32;;;;;;;2.13;2.03;;;;;;;;;;5115899;28;20199;-62
2023/07/20 13:06:01;;;;;;;2.58;2.38;;;;;;;;;;5115412;28;20217;-62
2023/07/20 13:08:28;;;;;;;2.40;2.30;;;;;;;;;;5115164;28;20213;-62
2023/07/20 13:10:56;;;;;;;2.92;2.72;;;;;;;;;;5115849;28;20326;-62
2023/07/20 13:13:23;;;;;;;2.88;2.67;;;;;;;;;;5116051;28;20203;-62
2023/07/20 13:15:53;;;;;;;2.47;2.33;;;;;;;;;;5115769;28;20203;-62
2023/07/20 13:18:21;;;;;;;2.40;2.30;;;;;;;;;;5116507;28;20211;-62
2023/07/20 13:20:48;;;;;;;2.38;2.28;;;;;;;;;;5115065;28;20241;-62
2023/07/20 13:23:16;;;;;;;2.50;2.30;;;;;;;;;;5115774;28;20268;-62
2023/07/20 13:25:43;;;;;;;2.38;2.28;;;;;;;;;;5115847;28;20215;-62
2023/07/20 13:28:10;;;;;;;2.75;2.55;;;;;;;;;;5114952;28;20199;-62
2023/07/20 13:30:38;;;;;;;2.47;2.28;;;;;;;;;;5116340;28;20194;-61
2023/07/20 13:33:07;;;;;;;2.65;2.40;;;;;;;;;;5115390;28;20715;-62
2023/07/20 13:35:34;;;;;;;2.20;2.10;;;;;;;;;;5115641;28;20226;-62
2023/07/20 13:38:01;;;;;;;2.28;2.10;;;;;;;;;;5115362;28;20209;-62
2023/07/20 13:40:29;;;;;;;2.42;2.22;;;;;;;;;;5115588;28;20199;-64
2023/07/20 13:42:56;;;;;;;2.60;2.40;;;;;;;;;;5115232;28;20545;-62
2023/07/20 13:45:23;;;;;;;2.13;2.03;;;;;;;;;;5114553;28;20202;-62
2023/07/20 13:47:51;;;;;;;2.25;2.05;;;;;;;;;;5115187;28;20290;-62
2023/07/20 13:50:20;;;;;;;1.92;1.83;;;;;;;;;;5115518;28;20213;-62
2023/07/20 13:52:47;;;;;;;2.10;1.92;;;;;;;;;;5115278;28;20219;-62
2023/07/20 13:55:14;;;;;;;1.85;1.75;;;;;;;;;;5116222;28;20736;-62
2023/07/20 13:57:42;;;;;;;1.90;1.80;;;;;;;;;;5115981;28;20199;-62
2023/07/20 14:00:10;;;;;;;2.00;1.90;;;;;;;;;;5115032;28;20631;-63
2023/07/20 14:02:38;;;;;;;1.92;1.83;;;;;;;;;;5115831;28;20299;-62
2023/07/20 14:05:05;;;;;;;2.40;2.20;;;;;;;;;;5114149;28;20213;-62
2023/07/20 14:07:34;;;;;;;1.88;1.77;;;;;;;;;;5115216;28;20302;-62
2023/07/20 14:10:02;;;;;;;2.30;2.20;;;;;;;;;;5115377;28;20210;-62
2023/07/20 14:12:30;;;;;;;2.00;1.90;;;;;;;;;;5114278;28;20218;-62
2023/07/20 14:14:57;;;;;;;2.05;1.95;;;;;;;;;;5115316;28;20210;-62
2023/07/20 14:17:25;;;;;;;2.28;2.08;;;;;;;;;;5115258;28;20210;-63
2023/07/20 14:19:52;;;;;;;2.00;1.90;;;;;;;;;;5114834;28;20195;-62
2023/07/20 14:22:20;;;;;;;2.08;1.98;;;;;;;;;;5113598;28;20294;-62
2023/07/20 14:24:49;;;;;;;1.95;1.75;;;;;;;;;;5114352;28;20583;-62
2023/07/20 14:27:16;;;;;;;2.40;2.00;;;;;;;;;;5114647;28;20195;-62
2023/07/20 14:29:44;;;;;;;2.00;1.90;;;;;;;;;;5113990;28;20253;-62
2023/07/20 14:32:12;;;;;;;2.30;2.20;;;;;;;;;;5114878;28;20286;-62
2023/07/20 14:34:40;;;;;;;1.92;1.83;;;;;;;;;;5114998;28;20239;-62
2023/07/20 14:37:07;;;;;;;1.95;1.85;;;;;;;;;;5115183;28;20207;-62
2023/07/20 14:39:35;;;;;;;2.20;2.10;;;;;;;;;;5114359;28;20294;-62
2023/07/20 14:42:04;;;;;;;1.90;1.80;;;;;;;;;;5114128;28;20191;-62
2023/07/20 14:44:32;;;;;;;1.95;1.85;;;;;;;;;;5115610;28;20203;-61
2023/07/20 14:46:59;;;;;;;1.80;1.70;;;;;;;;;;5114946;28;20199;-62
2023/07/20 14:49:27;;;;;;;2.00;1.90;;;;;;;;;;5115963;28;20222;-61